sensor_id;sensor_type;location;lat;lon;timestamp;P1;durP1;ratioP1;P2;durP2;ratioP2
84295;SDS011;74464;42.688;23.304;2024-02-23T00:02:10;14.48;;;6.68;;
84295;SDS011;74464;42.688;23.304;2024-02-23T00:04:36;11.82;;;6.13;;
84295;SDS011;74464;42.688;23.304;2024-02-23T00:07:02;11.05;;;5.82;;
84295;SDS011;74464;42.688;23.304;2024-02-23T00:09:29;10.35;;;5.25;;
84295;SDS011;74464;42.688;23.304;2024-02-23T00:11:55;8.55;;;4.90;;
84295;SDS011;74464;42.688;23.304;2024-02-23T00:14:20;9.68;;;5.35;;
84295;SDS011;74464;42.688;23.304;2024-02-23T00:16:46;12.57;;;5.32;;
84295;SDS011;74464;42.688;23.304;2024-02-23T00:19:14;9.57;;;5.38;;
84295;SDS011;74464;42.688;23.304;2024-02-23T00:21:41;8.88;;;4.55;;
84295;SDS011;74464;42.688;23.304;2024-02-23T00:24:07;10.15;;;5.35;;
84295;SDS011;74464;42.688;23.304;2024-02-23T00:26:33;9.95;;;5.30;;
84295;SDS011;74464;42.688;23.304;2024-02-23T00:28:59;10.02;;;5.55;;
84295;SDS011;74464;42.688;23.304;2024-02-23T00:31:24;9.32;;;5.10;;
84295;SDS011;74464;42.688;23.304;2024-02-23T00:33:50;9.63;;;4.88;;
84295;SDS011;74464;42.688;23.304;2024-02-23T00:36:17;9.90;;;5.38;;
84295;SDS011;74464;42.688;23.304;2024-02-23T00:38:43;8.35;;;4.68;;
84295;SDS011;74464;42.688;23.304;2024-02-23T00:41:08;9.15;;;4.90;;
84295;SDS011;74464;42.688;23.304;2024-02-23T00:43:40;14.38;;;5.28;;
84295;SDS011;74464;42.688;23.304;2024-02-23T00:46:07;9.93;;;4.50;;
84295;SDS011;74464;42.688;23.304;2024-02-23T00:48:35;9.90;;;5.10;;
84295;SDS011;74464;42.688;23.304;2024-02-23T00:51:02;9.70;;;5.28;;
84295;SDS011;74464;42.688;23.304;2024-02-23T00:53:32;11.40;;;6.05;;
84295;SDS011;74464;42.688;23.304;2024-02-23T00:55:58;10.38;;;5.20;;
84295;SDS011;74464;42.688;23.304;2024-02-23T00:58:25;8.23;;;4.75;;
84295;SDS011;74464;42.688;23.304;2024-02-23T01:00:50;9.25;;;4.50;;
84295;SDS011;74464;42.688;23.304;2024-02-23T01:03:16;9.57;;;4.90;;
84295;SDS011;74464;42.688;23.304;2024-02-23T01:05:41;7.72;;;4.40;;
84295;SDS011;74464;42.688;23.304;2024-02-23T01:08:09;10.18;;;5.25;;
84295;SDS011;74464;42.688;23.304;2024-02-23T01:10:35;7.95;;;4.80;;
84295;SDS011;74464;42.688;23.304;2024-02-23T01:13:00;10.55;;;4.63;;
84295;SDS011;74464;42.688;23.304;2024-02-23T01:15:26;13.15;;;7.30;;
84295;SDS011;74464;42.688;23.304;2024-02-23T01:17:52;14.25;;;9.07;;
84295;SDS011;74464;42.688;23.304;2024-02-23T01:20:17;14.25;;;9.73;;
84295;SDS011;74464;42.688;23.304;2024-02-23T01:22:43;11.05;;;6.63;;
84295;SDS011;74464;42.688;23.304;2024-02-23T01:25:09;10.38;;;5.45;;
84295;SDS011;74464;42.688;23.304;2024-02-23T01:27:35;9.32;;;5.40;;
84295;SDS011;74464;42.688;23.304;2024-02-23T01:30:01;10.32;;;5.70;;
84295;SDS011;74464;42.688;23.304;2024-02-23T01:32:27;9.13;;;5.57;;
84295;SDS011;74464;42.688;23.304;2024-02-23T01:34:53;9.27;;;5.53;;
84295;SDS011;74464;42.688;23.304;2024-02-23T01:37:20;10.63;;;5.80;;
84295;SDS011;74464;42.688;23.304;2024-02-23T01:39:45;11.95;;;5.57;;
84295;SDS011;74464;42.688;23.304;2024-02-23T01:42:11;8.82;;;4.75;;
84295;SDS011;74464;42.688;23.304;2024-02-23T01:44:37;9.05;;;4.35;;
84295;SDS011;74464;42.688;23.304;2024-02-23T01:47:03;10.02;;;5.32;;
84295;SDS011;74464;42.688;23.304;2024-02-23T01:49:28;8.00;;;5.15;;
84295;SDS011;74464;42.688;23.304;2024-02-23T01:51:58;10.88;;;5.93;;
84295;SDS011;74464;42.688;23.304;2024-02-23T01:54:28;9.55;;;5.32;;
84295;SDS011;74464;42.688;23.304;2024-02-23T01:56:56;9.05;;;5.32;;
84295;SDS011;74464;42.688;23.304;2024-02-23T01:59:27;12.25;;;5.88;;
84295;SDS011;74464;42.688;23.304;2024-02-23T02:01:53;9.27;;;4.95;;
84295;SDS011;74464;42.688;23.304;2024-02-23T02:04:21;12.57;;;6.13;;
84295;SDS011;74464;42.688;23.304;2024-02-23T02:06:46;10.13;;;5.03;;
84295;SDS011;74464;42.688;23.304;2024-02-23T02:09:14;12.25;;;5.43;;
84295;SDS011;74464;42.688;23.304;2024-02-23T02:11:46;12.10;;;6.82;;
84295;SDS011;74464;42.688;23.304;2024-02-23T02:14:12;26.90;;;11.13;;
84295;SDS011;74464;42.688;23.304;2024-02-23T02:16:38;14.88;;;7.55;;
84295;SDS011;74464;42.688;23.304;2024-02-23T02:19:05;13.40;;;6.85;;
84295;SDS011;74464;42.688;23.304;2024-02-23T02:21:33;16.65;;;7.03;;
84295;SDS011;74464;42.688;23.304;2024-02-23T02:24:06;13.15;;;6.97;;
84295;SDS011;74464;42.688;23.304;2024-02-23T02:26:32;12.80;;;6.57;;
84295;SDS011;74464;42.688;23.304;2024-02-23T02:28:58;12.60;;;6.63;;
84295;SDS011;74464;42.688;23.304;2024-02-23T02:31:24;11.00;;;5.60;;
84295;SDS011;74464;42.688;23.304;2024-02-23T02:33:50;12.27;;;5.80;;
84295;SDS011;74464;42.688;23.304;2024-02-23T02:36:16;12.00;;;5.30;;
84295;SDS011;74464;42.688;23.304;2024-02-23T02:38:42;10.90;;;5.20;;
84295;SDS011;74464;42.688;23.304;2024-02-23T02:41:08;12.07;;;5.82;;
84295;SDS011;74464;42.688;23.304;2024-02-23T02:43:34;11.73;;;5.78;;
84295;SDS011;74464;42.688;23.304;2024-02-23T02:45:59;10.82;;;5.90;;
84295;SDS011;74464;42.688;23.304;2024-02-23T02:48:26;13.20;;;6.25;;
84295;SDS011;74464;42.688;23.304;2024-02-23T02:50:51;10.80;;;5.57;;
84295;SDS011;74464;42.688;23.304;2024-02-23T02:53:17;9.63;;;5.90;;
84295;SDS011;74464;42.688;23.304;2024-02-23T02:55:43;14.57;;;6.63;;
84295;SDS011;74464;42.688;23.304;2024-02-23T02:58:12;9.60;;;5.57;;
84295;SDS011;74464;42.688;23.304;2024-02-23T03:00:38;12.45;;;6.28;;
84295;SDS011;74464;42.688;23.304;2024-02-23T03:03:04;12.90;;;6.88;;
84295;SDS011;74464;42.688;23.304;2024-02-23T03:05:31;11.63;;;6.28;;
84295;SDS011;74464;42.688;23.304;2024-02-23T03:10:25;8.48;;;4.75;;
84295;SDS011;74464;42.688;23.304;2024-02-23T03:12:51;13.02;;;6.00;;
84295;SDS011;74464;42.688;23.304;2024-02-23T03:15:16;11.25;;;5.65;;
84295;SDS011;74464;42.688;23.304;2024-02-23T03:17:42;12.13;;;6.00;;
84295;SDS011;74464;42.688;23.304;2024-02-23T03:20:09;12.18;;;5.72;;
84295;SDS011;74464;42.688;23.304;2024-02-23T03:22:37;11.88;;;5.78;;
84295;SDS011;74464;42.688;23.304;2024-02-23T03:25:04;11.63;;;5.45;;
84295;SDS011;74464;42.688;23.304;2024-02-23T03:27:33;11.30;;;6.82;;
84295;SDS011;74464;42.688;23.304;2024-02-23T03:30:04;12.23;;;7.25;;
84295;SDS011;74464;42.688;23.304;2024-02-23T03:32:30;11.40;;;5.28;;
84295;SDS011;74464;42.688;23.304;2024-02-23T03:35:02;13.43;;;6.45;;
84295;SDS011;74464;42.688;23.304;2024-02-23T03:37:28;10.10;;;6.47;;
84295;SDS011;74464;42.688;23.304;2024-02-23T03:39:55;13.30;;;6.03;;
84295;SDS011;74464;42.688;23.304;2024-02-23T03:42:21;14.20;;;6.68;;
84295;SDS011;74464;42.688;23.304;2024-02-23T03:44:46;14.35;;;5.82;;
84295;SDS011;74464;42.688;23.304;2024-02-23T03:47:12;11.52;;;5.88;;
84295;SDS011;74464;42.688;23.304;2024-02-23T03:49:38;8.80;;;4.95;;
84295;SDS011;74464;42.688;23.304;2024-02-23T03:52:04;13.43;;;5.70;;
84295;SDS011;74464;42.688;23.304;2024-02-23T03:54:30;12.48;;;6.18;;
84295;SDS011;74464;42.688;23.304;2024-02-23T03:56:57;13.85;;;6.60;;
84295;SDS011;74464;42.688;23.304;2024-02-23T03:59:23;12.25;;;6.18;;
84295;SDS011;74464;42.688;23.304;2024-02-23T04:01:51;9.55;;;5.65;;
84295;SDS011;74464;42.688;23.304;2024-02-23T04:04:17;11.13;;;5.57;;
84295;SDS011;74464;42.688;23.304;2024-02-23T04:06:43;12.82;;;6.25;;
84295;SDS011;74464;42.688;23.304;2024-02-23T04:09:10;16.42;;;6.13;;
84295;SDS011;74464;42.688;23.304;2024-02-23T04:11:36;11.13;;;6.15;;
84295;SDS011;74464;42.688;23.304;2024-02-23T04:14:02;11.18;;;6.30;;
84295;SDS011;74464;42.688;23.304;2024-02-23T04:16:30;10.15;;;6.20;;
84295;SDS011;74464;42.688;23.304;2024-02-23T04:18:57;11.10;;;5.68;;
84295;SDS011;74464;42.688;23.304;2024-02-23T04:21:24;10.98;;;5.38;;
84295;SDS011;74464;42.688;23.304;2024-02-23T04:23:50;10.77;;;5.13;;
84295;SDS011;74464;42.688;23.304;2024-02-23T04:26:15;10.63;;;5.18;;
84295;SDS011;74464;42.688;23.304;2024-02-23T04:28:41;9.48;;;4.45;;
84295;SDS011;74464;42.688;23.304;2024-02-23T04:31:10;12.07;;;6.47;;
84295;SDS011;74464;42.688;23.304;2024-02-23T04:33:36;11.02;;;6.13;;
84295;SDS011;74464;42.688;23.304;2024-02-23T04:36:03;14.35;;;6.63;;
84295;SDS011;74464;42.688;23.304;2024-02-23T04:38:30;18.83;;;12.90;;
84295;SDS011;74464;42.688;23.304;2024-02-23T04:40:56;21.13;;;13.68;;
84295;SDS011;74464;42.688;23.304;2024-02-23T04:43:23;19.95;;;10.20;;
84295;SDS011;74464;42.688;23.304;2024-02-23T04:45:50;17.25;;;9.68;;
84295;SDS011;74464;42.688;23.304;2024-02-23T04:48:17;14.18;;;7.68;;
84295;SDS011;74464;42.688;23.304;2024-02-23T04:50:43;13.82;;;8.00;;
84295;SDS011;74464;42.688;23.304;2024-02-23T04:53:08;16.73;;;7.65;;
84295;SDS011;74464;42.688;23.304;2024-02-23T04:55:34;13.50;;;5.95;;
84295;SDS011;74464;42.688;23.304;2024-02-23T04:58:00;11.95;;;5.85;;
84295;SDS011;74464;42.688;23.304;2024-02-23T05:00:25;14.40;;;7.53;;
84295;SDS011;74464;42.688;23.304;2024-02-23T05:02:58;12.93;;;7.10;;
84295;SDS011;74464;42.688;23.304;2024-02-23T05:05:30;11.30;;;6.90;;
84295;SDS011;74464;42.688;23.304;2024-02-23T05:07:56;13.15;;;7.47;;
84295;SDS011;74464;42.688;23.304;2024-02-23T05:10:22;12.77;;;6.15;;
84295;SDS011;74464;42.688;23.304;2024-02-23T05:12:48;14.18;;;7.63;;
84295;SDS011;74464;42.688;23.304;2024-02-23T05:15:14;14.90;;;7.07;;
84295;SDS011;74464;42.688;23.304;2024-02-23T05:17:40;12.88;;;6.47;;
84295;SDS011;74464;42.688;23.304;2024-02-23T05:20:06;12.23;;;6.65;;
84295;SDS011;74464;42.688;23.304;2024-02-23T05:22:36;11.38;;;6.43;;
84295;SDS011;74464;42.688;23.304;2024-02-23T05:25:02;18.08;;;6.75;;
84295;SDS011;74464;42.688;23.304;2024-02-23T05:27:29;13.27;;;6.45;;
84295;SDS011;74464;42.688;23.304;2024-02-23T05:29:56;14.48;;;7.05;;
84295;SDS011;74464;42.688;23.304;2024-02-23T05:32:22;12.73;;;7.00;;
84295;SDS011;74464;42.688;23.304;2024-02-23T05:34:47;14.40;;;7.25;;
84295;SDS011;74464;42.688;23.304;2024-02-23T05:37:17;12.73;;;5.25;;
84295;SDS011;74464;42.688;23.304;2024-02-23T05:39:46;14.43;;;7.25;;
84295;SDS011;74464;42.688;23.304;2024-02-23T05:42:12;14.63;;;7.78;;
84295;SDS011;74464;42.688;23.304;2024-02-23T05:44:39;14.90;;;7.10;;
84295;SDS011;74464;42.688;23.304;2024-02-23T05:47:08;13.93;;;7.93;;
84295;SDS011;74464;42.688;23.304;2024-02-23T05:49:35;14.30;;;7.57;;
84295;SDS011;74464;42.688;23.304;2024-02-23T05:52:00;12.85;;;7.20;;
84295;SDS011;74464;42.688;23.304;2024-02-23T05:54:27;12.98;;;7.38;;
84295;SDS011;74464;42.688;23.304;2024-02-23T05:56:53;15.55;;;7.63;;
84295;SDS011;74464;42.688;23.304;2024-02-23T05:59:18;17.40;;;8.05;;
84295;SDS011;74464;42.688;23.304;2024-02-23T06:01:45;19.95;;;8.15;;
84295;SDS011;74464;42.688;23.304;2024-02-23T06:04:11;13.65;;;7.35;;
84295;SDS011;74464;42.688;23.304;2024-02-23T06:06:36;13.70;;;5.20;;
84295;SDS011;74464;42.688;23.304;2024-02-23T06:09:02;15.05;;;7.55;;
84295;SDS011;74464;42.688;23.304;2024-02-23T06:11:29;15.70;;;7.90;;
84295;SDS011;74464;42.688;23.304;2024-02-23T06:13:54;14.30;;;7.45;;
84295;SDS011;74464;42.688;23.304;2024-02-23T06:16:20;14.85;;;7.93;;
84295;SDS011;74464;42.688;23.304;2024-02-23T06:18:47;20.70;;;7.95;;
84295;SDS011;74464;42.688;23.304;2024-02-23T06:21:16;13.95;;;7.65;;
84295;SDS011;74464;42.688;23.304;2024-02-23T06:23:43;19.30;;;7.45;;
84295;SDS011;74464;42.688;23.304;2024-02-23T06:26:09;16.33;;;7.85;;
84295;SDS011;74464;42.688;23.304;2024-02-23T06:28:35;15.82;;;7.07;;
84295;SDS011;74464;42.688;23.304;2024-02-23T06:31:05;15.15;;;7.35;;
84295;SDS011;74464;42.688;23.304;2024-02-23T06:33:31;14.60;;;7.95;;
84295;SDS011;74464;42.688;23.304;2024-02-23T06:35:57;14.98;;;7.93;;
84295;SDS011;74464;42.688;23.304;2024-02-23T06:38:22;14.48;;;7.60;;
84295;SDS011;74464;42.688;23.304;2024-02-23T06:40:48;15.63;;;7.18;;
84295;SDS011;74464;42.688;23.304;2024-02-23T06:43:14;13.55;;;7.22;;
84295;SDS011;74464;42.688;23.304;2024-02-23T06:45:40;16.77;;;6.93;;
84295;SDS011;74464;42.688;23.304;2024-02-23T06:48:06;11.77;;;6.60;;
84295;SDS011;74464;42.688;23.304;2024-02-23T06:50:32;18.10;;;8.40;;
84295;SDS011;74464;42.688;23.304;2024-02-23T06:52:58;15.48;;;7.65;;
84295;SDS011;74464;42.688;23.304;2024-02-23T06:55:25;15.82;;;7.72;;
84295;SDS011;74464;42.688;23.304;2024-02-23T06:57:51;11.52;;;6.43;;
84295;SDS011;74464;42.688;23.304;2024-02-23T07:00:19;15.93;;;8.32;;
84295;SDS011;74464;42.688;23.304;2024-02-23T07:02:47;24.42;;;8.45;;
84295;SDS011;74464;42.688;23.304;2024-02-23T07:05:14;14.82;;;8.13;;
84295;SDS011;74464;42.688;23.304;2024-02-23T07:07:39;17.00;;;8.32;;
84295;SDS011;74464;42.688;23.304;2024-02-23T07:10:06;19.10;;;9.23;;
84295;SDS011;74464;42.688;23.304;2024-02-23T07:12:33;15.35;;;8.02;;
84295;SDS011;74464;42.688;23.304;2024-02-23T07:14:59;17.42;;;7.80;;
84295;SDS011;74464;42.688;23.304;2024-02-23T07:17:25;16.77;;;8.40;;
84295;SDS011;74464;42.688;23.304;2024-02-23T07:19:51;14.90;;;7.93;;
84295;SDS011;74464;42.688;23.304;2024-02-23T07:22:18;16.65;;;7.63;;
84295;SDS011;74464;42.688;23.304;2024-02-23T07:24:44;14.95;;;8.07;;
84295;SDS011;74464;42.688;23.304;2024-02-23T07:27:09;18.83;;;8.18;;
84295;SDS011;74464;42.688;23.304;2024-02-23T07:29:35;15.23;;;8.80;;
84295;SDS011;74464;42.688;23.304;2024-02-23T07:34:30;16.58;;;8.65;;
84295;SDS011;74464;42.688;23.304;2024-02-23T07:36:56;15.35;;;8.88;;
84295;SDS011;74464;42.688;23.304;2024-02-23T07:39:22;16.13;;;8.98;;
84295;SDS011;74464;42.688;23.304;2024-02-23T07:41:48;12.63;;;6.57;;
84295;SDS011;74464;42.688;23.304;2024-02-23T07:44:14;19.30;;;10.20;;
84295;SDS011;74464;42.688;23.304;2024-02-23T07:59:36;12.13;;;6.82;;
84295;SDS011;74464;42.688;23.304;2024-02-23T08:02:02;16.83;;;8.77;;
84295;SDS011;74464;42.688;23.304;2024-02-23T08:06:59;17.60;;;8.18;;
84295;SDS011;74464;42.688;23.304;2024-02-23T08:09:25;17.83;;;9.25;;
84295;SDS011;74464;42.688;23.304;2024-02-23T08:11:51;18.05;;;8.32;;
84295;SDS011;74464;42.688;23.304;2024-02-23T08:14:16;18.95;;;10.23;;
84295;SDS011;74464;42.688;23.304;2024-02-23T08:16:42;19.15;;;9.98;;
84295;SDS011;74464;42.688;23.304;2024-02-23T08:19:08;20.00;;;10.73;;
84295;SDS011;74464;42.688;23.304;2024-02-23T08:21:34;18.35;;;9.82;;
84295;SDS011;74464;42.688;23.304;2024-02-23T08:24:00;18.02;;;9.38;;
84295;SDS011;74464;42.688;23.304;2024-02-23T08:26:25;21.45;;;10.45;;
84295;SDS011;74464;42.688;23.304;2024-02-23T08:28:51;17.80;;;8.10;;
84295;SDS011;74464;42.688;23.304;2024-02-23T08:31:17;19.20;;;9.60;;
84295;SDS011;74464;42.688;23.304;2024-02-23T08:33:42;19.67;;;9.27;;
84295;SDS011;74464;42.688;23.304;2024-02-23T08:36:08;19.23;;;8.93;;
84295;SDS011;74464;42.688;23.304;2024-02-23T08:38:36;15.05;;;7.75;;
84295;SDS011;74464;42.688;23.304;2024-02-23T08:41:02;15.05;;;6.97;;
84295;SDS011;74464;42.688;23.304;2024-02-23T08:43:28;20.85;;;9.63;;
84295;SDS011;74464;42.688;23.304;2024-02-23T08:45:53;16.05;;;7.82;;
84295;SDS011;74464;42.688;23.304;2024-02-23T08:48:20;19.02;;;9.50;;
84295;SDS011;74464;42.688;23.304;2024-02-23T08:50:46;19.75;;;8.88;;
84295;SDS011;74464;42.688;23.304;2024-02-23T08:53:12;14.10;;;7.88;;
84295;SDS011;74464;42.688;23.304;2024-02-23T08:55:38;33.75;;;13.80;;
84295;SDS011;74464;42.688;23.304;2024-02-23T08:58:05;17.55;;;8.20;;
84295;SDS011;74464;42.688;23.304;2024-02-23T09:00:31;12.93;;;6.65;;
84295;SDS011;74464;42.688;23.304;2024-02-23T09:02:57;16.02;;;7.93;;
84295;SDS011;74464;42.688;23.304;2024-02-23T09:05:24;17.10;;;8.13;;
84295;SDS011;74464;42.688;23.304;2024-02-23T09:07:53;18.77;;;7.57;;
84295;SDS011;74464;42.688;23.304;2024-02-23T09:10:18;11.20;;;6.70;;
84295;SDS011;74464;42.688;23.304;2024-02-23T09:12:44;10.02;;;5.72;;
84295;SDS011;74464;42.688;23.304;2024-02-23T09:15:11;10.02;;;4.70;;
84295;SDS011;74464;42.688;23.304;2024-02-23T09:17:37;11.60;;;6.22;;
84295;SDS011;74464;42.688;23.304;2024-02-23T09:20:02;10.43;;;6.47;;
84295;SDS011;74464;42.688;23.304;2024-02-23T09:22:29;10.20;;;5.78;;
84295;SDS011;74464;42.688;23.304;2024-02-23T09:24:55;12.65;;;6.65;;
84295;SDS011;74464;42.688;23.304;2024-02-23T09:27:21;10.68;;;5.90;;
84295;SDS011;74464;42.688;23.304;2024-02-23T09:29:47;17.35;;;6.68;;
84295;SDS011;74464;42.688;23.304;2024-02-23T09:32:13;13.10;;;6.15;;
84295;SDS011;74464;42.688;23.304;2024-02-23T09:34:39;13.18;;;6.65;;
84295;SDS011;74464;42.688;23.304;2024-02-23T09:37:06;11.27;;;4.90;;
84295;SDS011;74464;42.688;23.304;2024-02-23T09:39:32;8.23;;;4.55;;
84295;SDS011;74464;42.688;23.304;2024-02-23T09:41:58;12.00;;;5.50;;
84295;SDS011;74464;42.688;23.304;2024-02-23T09:44:23;10.18;;;5.10;;
84295;SDS011;74464;42.688;23.304;2024-02-23T09:47:03;9.75;;;4.97;;
84295;SDS011;74464;42.688;23.304;2024-02-23T09:49:38;6.07;;;2.35;;
84295;SDS011;74464;42.688;23.304;2024-02-23T09:52:07;6.22;;;2.90;;
84295;SDS011;74464;42.688;23.304;2024-02-23T09:54:35;5.43;;;2.75;;
84295;SDS011;74464;42.688;23.304;2024-02-23T09:57:02;5.10;;;2.97;;
84295;SDS011;74464;42.688;23.304;2024-02-23T09:59:33;7.60;;;3.70;;
84295;SDS011;74464;42.688;23.304;2024-02-23T10:02:09;8.90;;;3.40;;
84295;SDS011;74464;42.688;23.304;2024-02-23T10:04:39;6.90;;;3.38;;
84295;SDS011;74464;42.688;23.304;2024-02-23T10:07:06;7.25;;;3.28;;
84295;SDS011;74464;42.688;23.304;2024-02-23T10:09:32;14.57;;;3.70;;
84295;SDS011;74464;42.688;23.304;2024-02-23T10:11:58;6.53;;;3.47;;
84295;SDS011;74464;42.688;23.304;2024-02-23T10:14:23;4.72;;;2.75;;
84295;SDS011;74464;42.688;23.304;2024-02-23T10:16:50;5.05;;;2.83;;
84295;SDS011;74464;42.688;23.304;2024-02-23T10:19:22;4.72;;;2.72;;
84295;SDS011;74464;42.688;23.304;2024-02-23T10:21:55;5.95;;;3.38;;
84295;SDS011;74464;42.688;23.304;2024-02-23T10:24:22;4.20;;;2.28;;
84295;SDS011;74464;42.688;23.304;2024-02-23T10:26:51;4.63;;;2.25;;
84295;SDS011;74464;42.688;23.304;2024-02-23T10:29:18;8.25;;;2.55;;
84295;SDS011;74464;42.688;23.304;2024-02-23T10:31:46;4.60;;;2.47;;
84295;SDS011;74464;42.688;23.304;2024-02-23T10:34:14;3.78;;;2.08;;
84295;SDS011;74464;42.688;23.304;2024-02-23T10:36:44;5.15;;;2.78;;
84295;SDS011;74464;42.688;23.304;2024-02-23T10:39:15;4.50;;;2.28;;
84295;SDS011;74464;42.688;23.304;2024-02-23T10:41:45;3.42;;;1.98;;
84295;SDS011;74464;42.688;23.304;2024-02-23T10:44:18;6.13;;;3.10;;
84295;SDS011;74464;42.688;23.304;2024-02-23T10:46:45;5.22;;;2.10;;
84295;SDS011;74464;42.688;23.304;2024-02-23T10:49:12;4.82;;;3.00;;
84295;SDS011;74464;42.688;23.304;2024-02-23T10:51:40;5.90;;;2.03;;
84295;SDS011;74464;42.688;23.304;2024-02-23T10:54:07;5.32;;;2.60;;
84295;SDS011;74464;42.688;23.304;2024-02-23T10:56:33;4.40;;;2.10;;
84295;SDS011;74464;42.688;23.304;2024-02-23T10:59:00;4.95;;;2.13;;
84295;SDS011;74464;42.688;23.304;2024-02-23T11:01:26;6.32;;;2.50;;
84295;SDS011;74464;42.688;23.304;2024-02-23T11:03:52;5.45;;;2.90;;
84295;SDS011;74464;42.688;23.304;2024-02-23T11:06:19;4.72;;;2.20;;
84295;SDS011;74464;42.688;23.304;2024-02-23T11:08:48;4.55;;;2.10;;
84295;SDS011;74464;42.688;23.304;2024-02-23T11:11:16;5.00;;;1.90;;
84295;SDS011;74464;42.688;23.304;2024-02-23T11:13:44;3.13;;;1.67;;
84295;SDS011;74464;42.688;23.304;2024-02-23T11:16:21;5.70;;;2.10;;
84295;SDS011;74464;42.688;23.304;2024-02-23T11:18:48;4.03;;;2.30;;
84295;SDS011;74464;42.688;23.304;2024-02-23T11:21:15;3.92;;;1.98;;
84295;SDS011;74464;42.688;23.304;2024-02-23T11:24:01;4.90;;;2.58;;
84295;SDS011;74464;42.688;23.304;2024-02-23T11:26:30;3.78;;;2.33;;
84295;SDS011;74464;42.688;23.304;2024-02-23T11:28:58;4.63;;;2.45;;
84295;SDS011;74464;42.688;23.304;2024-02-23T11:31:29;3.92;;;2.25;;
84295;SDS011;74464;42.688;23.304;2024-02-23T11:33:56;4.18;;;2.22;;
84295;SDS011;74464;42.688;23.304;2024-02-23T11:36:28;4.72;;;2.40;;
84295;SDS011;74464;42.688;23.304;2024-02-23T11:38:56;5.28;;;2.25;;
84295;SDS011;74464;42.688;23.304;2024-02-23T11:41:23;4.88;;;2.17;;
84295;SDS011;74464;42.688;23.304;2024-02-23T11:43:50;5.82;;;2.20;;
84295;SDS011;74464;42.688;23.304;2024-02-23T11:46:17;4.45;;;2.00;;
84295;SDS011;74464;42.688;23.304;2024-02-23T11:48:43;4.68;;;2.20;;
84295;SDS011;74464;42.688;23.304;2024-02-23T11:51:11;4.50;;;1.70;;
84295;SDS011;74464;42.688;23.304;2024-02-23T11:53:40;4.18;;;2.30;;
84295;SDS011;74464;42.688;23.304;2024-02-23T11:56:07;5.13;;;2.28;;
84295;SDS011;74464;42.688;23.304;2024-02-23T11:58:33;3.50;;;1.73;;
84295;SDS011;74464;42.688;23.304;2024-02-23T12:00:59;3.40;;;2.00;;
84295;SDS011;74464;42.688;23.304;2024-02-23T12:03:30;6.80;;;2.28;;
84295;SDS011;74464;42.688;23.304;2024-02-23T12:06:00;3.65;;;2.05;;
84295;SDS011;74464;42.688;23.304;2024-02-23T12:08:26;3.67;;;1.90;;
84295;SDS011;74464;42.688;23.304;2024-02-23T12:10:56;3.70;;;1.88;;
84295;SDS011;74464;42.688;23.304;2024-02-23T12:13:25;3.92;;;2.25;;
84295;SDS011;74464;42.688;23.304;2024-02-23T12:15:52;8.48;;;3.55;;
84295;SDS011;74464;42.688;23.304;2024-02-23T12:18:22;3.25;;;1.88;;
84295;SDS011;74464;42.688;23.304;2024-02-23T12:21:03;5.70;;;2.10;;
84295;SDS011;74464;42.688;23.304;2024-02-23T12:24:04;3.40;;;2.22;;
84295;SDS011;74464;42.688;23.304;2024-02-23T12:26:23;2.88;;;1.70;;
84295;SDS011;74464;42.688;23.304;2024-02-23T12:28:48;4.07;;;1.83;;
84295;SDS011;74464;42.688;23.304;2024-02-23T12:31:14;3.83;;;2.20;;
84295;SDS011;74464;42.688;23.304;2024-02-23T12:33:40;3.85;;;2.30;;
84295;SDS011;74464;42.688;23.304;2024-02-23T12:36:06;4.72;;;1.70;;
84295;SDS011;74464;42.688;23.304;2024-02-23T12:38:33;4.10;;;2.13;;
84295;SDS011;74464;42.688;23.304;2024-02-23T12:41:00;3.58;;;2.13;;
84295;SDS011;74464;42.688;23.304;2024-02-23T12:43:27;4.35;;;1.70;;
84295;SDS011;74464;42.688;23.304;2024-02-23T12:45:53;3.58;;;1.77;;
84295;SDS011;74464;42.688;23.304;2024-02-23T12:48:23;5.65;;;2.15;;
84295;SDS011;74464;42.688;23.304;2024-02-23T12:50:49;4.78;;;2.05;;
84295;SDS011;74464;42.688;23.304;2024-02-23T12:56:11;3.47;;;1.63;;
84295;SDS011;74464;42.688;23.304;2024-02-23T12:58:39;3.78;;;1.58;;
84295;SDS011;74464;42.688;23.304;2024-02-23T13:01:07;2.65;;;1.50;;
84295;SDS011;74464;42.688;23.304;2024-02-23T13:03:34;4.53;;;2.30;;
84295;SDS011;74464;42.688;23.304;2024-02-23T13:06:00;3.17;;;1.75;;
84295;SDS011;74464;42.688;23.304;2024-02-23T13:08:27;3.42;;;1.75;;
84295;SDS011;74464;42.688;23.304;2024-02-23T13:10:53;3.00;;;1.20;;
84295;SDS011;74464;42.688;23.304;2024-02-23T13:13:20;2.03;;;1.52;;
84295;SDS011;74464;42.688;23.304;2024-02-23T13:15:48;5.85;;;1.65;;
84295;SDS011;74464;42.688;23.304;2024-02-23T13:18:16;3.45;;;2.03;;
84295;SDS011;74464;42.688;23.304;2024-02-23T13:20:41;6.00;;;2.63;;
84295;SDS011;74464;42.688;23.304;2024-02-23T13:23:08;2.45;;;1.38;;
84295;SDS011;74464;42.688;23.304;2024-02-23T13:25:35;8.07;;;3.22;;
84295;SDS011;74464;42.688;23.304;2024-02-23T13:28:02;7.60;;;3.10;;
84295;SDS011;74464;42.688;23.304;2024-02-23T13:30:28;6.80;;;2.70;;
84295;SDS011;74464;42.688;23.304;2024-02-23T13:32:53;4.20;;;2.08;;
84295;SDS011;74464;42.688;23.304;2024-02-23T13:35:19;6.65;;;1.80;;
84295;SDS011;74464;42.688;23.304;2024-02-23T13:37:45;6.63;;;2.22;;
84295;SDS011;74464;42.688;23.304;2024-02-23T13:40:11;4.60;;;2.33;;
84295;SDS011;74464;42.688;23.304;2024-02-23T13:42:40;5.65;;;1.90;;
84295;SDS011;74464;42.688;23.304;2024-02-23T13:45:06;5.82;;;3.38;;
84295;SDS011;74464;42.688;23.304;2024-02-23T13:50:02;4.68;;;2.30;;
84295;SDS011;74464;42.688;23.304;2024-02-23T13:52:29;4.85;;;2.00;;
84295;SDS011;74464;42.688;23.304;2024-02-23T13:54:55;6.45;;;2.40;;
84295;SDS011;74464;42.688;23.304;2024-02-23T13:57:21;3.95;;;1.65;;
84295;SDS011;74464;42.688;23.304;2024-02-23T13:59:48;3.35;;;1.88;;
84295;SDS011;74464;42.688;23.304;2024-02-23T14:02:16;4.55;;;2.22;;
84295;SDS011;74464;42.688;23.304;2024-02-23T14:04:43;3.15;;;1.80;;
84295;SDS011;74464;42.688;23.304;2024-02-23T14:07:10;3.90;;;1.58;;
84295;SDS011;74464;42.688;23.304;2024-02-23T14:09:36;3.97;;;1.85;;
84295;SDS011;74464;42.688;23.304;2024-02-23T14:12:03;8.35;;;2.05;;
84295;SDS011;74464;42.688;23.304;2024-02-23T14:14:29;4.07;;;2.05;;
84295;SDS011;74464;42.688;23.304;2024-02-23T14:16:55;5.50;;;2.35;;
84295;SDS011;74464;42.688;23.304;2024-02-23T14:19:21;4.18;;;2.30;;
84295;SDS011;74464;42.688;23.304;2024-02-23T14:21:47;3.10;;;1.80;;
84295;SDS011;74464;42.688;23.304;2024-02-23T14:24:13;4.20;;;2.25;;
84295;SDS011;74464;42.688;23.304;2024-02-23T14:26:39;7.55;;;2.42;;
84295;SDS011;74464;42.688;23.304;2024-02-23T14:29:05;3.28;;;1.90;;
84295;SDS011;74464;42.688;23.304;2024-02-23T14:31:31;4.13;;;2.10;;
84295;SDS011;74464;42.688;23.304;2024-02-23T14:33:57;3.67;;;1.83;;
84295;SDS011;74464;42.688;23.304;2024-02-23T14:36:24;4.45;;;2.40;;
84295;SDS011;74464;42.688;23.304;2024-02-23T14:38:49;3.92;;;2.03;;
84295;SDS011;74464;42.688;23.304;2024-02-23T14:41:16;3.53;;;1.83;;
84295;SDS011;74464;42.688;23.304;2024-02-23T14:43:42;5.25;;;3.05;;
84295;SDS011;74464;42.688;23.304;2024-02-23T14:46:08;3.67;;;2.13;;
84295;SDS011;74464;42.688;23.304;2024-02-23T14:48:34;7.35;;;2.10;;
84295;SDS011;74464;42.688;23.304;2024-02-23T14:51:01;5.57;;;2.53;;